createdAt,value
2022-12-29T00:01:12.399Z,1.13
2022-12-29T00:03:40.607Z,1.77
2022-12-29T00:06:08.913Z,1.17
2022-12-29T00:08:42.876Z,0.70
2022-12-29T00:11:12.615Z,0.88
2022-12-29T00:13:59.274Z,1.15
2022-12-29T00:16:27.959Z,1.85
2022-12-29T00:18:56.150Z,0.43
2022-12-29T00:21:43.103Z,0.60
2022-12-29T00:24:47.146Z,0.57
2022-12-29T00:27:32.636Z,0.82
2022-12-29T00:30:20.505Z,0.47
2022-12-29T00:33:06.118Z,0.90
2022-12-29T00:35:40.378Z,0.50
2022-12-29T00:38:33.669Z,0.50
2022-12-29T00:41:18.893Z,0.85
2022-12-29T00:44:04.991Z,0.60
2022-12-29T00:46:34.586Z,0.70
2022-12-29T00:49:20.849Z,0.70
2022-12-29T00:51:49.585Z,0.30
2022-12-29T00:54:18.403Z,0.40
2022-12-29T00:56:48.546Z,0.40
2022-12-29T00:59:17.023Z,0.70
2022-12-29T01:01:48.844Z,0.98
2022-12-29T01:04:17.095Z,0.20
2022-12-29T01:06:46.748Z,1.00
2022-12-29T01:09:32.943Z,0.60
2022-12-29T01:12:01.166Z,0.75
2022-12-29T01:14:29.834Z,0.45
2022-12-29T01:16:59.713Z,1.13
2022-12-29T01:19:28.154Z,1.35
2022-12-29T01:21:56.320Z,0.50
2022-12-29T01:24:25.232Z,0.52
2022-12-29T01:26:55.504Z,0.70
2022-12-29T01:29:24.260Z,0.32
2022-12-29T01:31:52.409Z,0.40
2022-12-29T01:34:22.291Z,0.90
2022-12-29T01:36:50.417Z,0.40
2022-12-29T01:39:18.571Z,0.45
2022-12-29T01:41:46.709Z,0.60
2022-12-29T01:44:53.158Z,0.95
2022-12-29T01:47:31.986Z,0.40
2022-12-29T01:50:04.349Z,0.85
2022-12-29T01:52:36.226Z,1.60
2022-12-29T01:55:05.791Z,0.30
2022-12-29T01:57:36.622Z,0.20
2022-12-29T02:00:09.241Z,0.20
2022-12-29T02:02:37.963Z,0.40
2022-12-29T02:05:12.539Z,0.98
2022-12-29T02:07:41.745Z,0.40
2022-12-29T02:10:10.054Z,1.07
2022-12-29T02:12:38.605Z,0.70
2022-12-29T02:15:08.237Z,1.05
2022-12-29T02:17:52.308Z,0.50
2022-12-29T02:20:47.386Z,0.38
2022-12-29T02:23:46.425Z,0.63
2022-12-29T02:26:35.402Z,0.30
2022-12-29T02:29:30.756Z,0.40
2022-12-29T02:32:03.229Z,0.45
2022-12-29T02:34:42.549Z,0.55
2022-12-29T02:37:19.717Z,0.53
2022-12-29T02:39:58.987Z,0.50
2022-12-29T02:42:37.463Z,0.93
2022-12-29T02:45:10.298Z,0.55
2022-12-29T02:47:45.164Z,0.85
2022-12-29T02:50:19.797Z,0.30
2022-12-29T02:52:53.267Z,0.28
2022-12-29T02:55:20.614Z,0.35
2022-12-29T02:57:49.151Z,0.35
2022-12-29T03:00:18.689Z,0.40
2022-12-29T03:03:14.640Z,0.32
2022-12-29T03:05:59.914Z,1.73
2022-12-29T03:08:36.031Z,0.30
2022-12-29T03:11:06.661Z,0.28
2022-12-29T03:13:59.031Z,0.55
2022-12-29T03:16:34.832Z,0.20
2022-12-29T03:19:10.314Z,0.95
2022-12-29T03:21:58.850Z,1.48
2022-12-29T03:24:30.980Z,1.25
2022-12-29T03:27:01.102Z,1.27
2022-12-29T03:29:31.790Z,0.38
2022-12-29T03:32:01.748Z,0.30
2022-12-29T03:34:33.398Z,0.20
2022-12-29T03:37:04.699Z,0.55
2022-12-29T03:39:33.746Z,0.35
2022-12-29T03:42:06.996Z,0.30
2022-12-29T03:44:38.395Z,0.28
2022-12-29T03:47:07.547Z,0.50
2022-12-29T03:49:37.136Z,0.57
2022-12-29T03:52:05.607Z,0.35
2022-12-29T03:54:34.123Z,0.22
2022-12-29T03:57:02.330Z,0.20
2022-12-29T03:59:30.478Z,0.22
2022-12-29T04:01:59.022Z,0.10
2022-12-29T04:04:27.300Z,0.22
2022-12-29T04:06:56.803Z,0.20
2022-12-29T04:09:25.253Z,0.50
2022-12-29T04:11:53.353Z,0.20
2022-12-29T04:14:21.794Z,0.30
2022-12-29T04:16:49.921Z,0.30
2022-12-29T04:19:18.088Z,0.20
2022-12-29T04:21:46.722Z,0.85
2022-12-29T04:24:16.241Z,0.40
2022-12-29T04:26:46.990Z,0.40
2022-12-29T04:29:15.404Z,0.28
2022-12-29T04:31:43.657Z,0.25
2022-12-29T04:34:12.087Z,0.35
2022-12-29T04:36:40.932Z,0.10
2022-12-29T04:39:09.532Z,0.17
2022-12-29T04:41:39.090Z,0.22
2022-12-29T04:44:07.480Z,0.20
2022-12-29T04:46:35.710Z,0.40
2022-12-29T04:49:09.439Z,0.22
2022-12-29T04:51:38.148Z,0.10
2022-12-29T04:54:06.583Z,0.20
2022-12-29T04:56:35.019Z,0.30
2022-12-29T04:59:04.529Z,0.40
2022-12-29T05:01:32.832Z,0.20
2022-12-29T05:04:01.116Z,0.45
2022-12-29T05:06:29.809Z,0.15
2022-12-29T05:08:57.934Z,0.40
2022-12-29T05:11:26.559Z,0.35
2022-12-29T05:13:54.984Z,0.10
2022-12-29T05:16:24.569Z,0.57
2022-12-29T05:18:52.769Z,0.15
2022-12-29T05:21:20.997Z,0.50
2022-12-29T05:23:49.158Z,0.20
2022-12-29T05:26:17.383Z,0.77
2022-12-29T05:28:45.513Z,0.30
2022-12-29T05:31:13.705Z,0.30
2022-12-29T05:33:43.233Z,0.10
2022-12-29T05:36:12.046Z,0.88
2022-12-29T05:38:40.187Z,0.10
2022-12-29T05:41:08.344Z,0.10
2022-12-29T05:43:36.584Z,0.10
2022-12-29T05:46:05.495Z,0.20
2022-12-29T05:48:37.851Z,0.47
2022-12-29T05:51:08.206Z,0.30
2022-12-29T05:56:05.871Z,0.38
2022-12-29T05:58:34.089Z,0.17
2022-12-29T06:01:02.299Z,0.15
2022-12-29T06:03:30.546Z,0.20
2022-12-29T06:05:59.529Z,0.57
2022-12-29T06:08:29.079Z,0.20
2022-12-29T06:10:57.294Z,0.55
2022-12-29T06:13:25.940Z,0.63
2022-12-29T06:15:54.142Z,0.10
2022-12-29T06:18:22.333Z,0.20
2022-12-29T06:20:50.781Z,3.20
2022-12-29T06:23:19.649Z,0.38
2022-12-29T06:25:50.366Z,0.50
2022-12-29T06:28:19.511Z,0.68
2022-12-29T06:30:47.917Z,0.63
2022-12-29T06:33:16.393Z,2.05
2022-12-29T06:35:46.844Z,1.48
2022-12-29T06:38:15.287Z,2.40
2022-12-29T06:40:46.373Z,1.42
2022-12-29T06:43:15.950Z,0.50
2022-12-29T06:45:44.876Z,1.80
2022-12-29T06:48:15.632Z,0.82
2022-12-29T06:50:43.774Z,1.83
2022-12-29T06:53:12.499Z,0.65
2022-12-29T06:55:41.676Z,1.52
2022-12-29T06:58:09.828Z,1.17
2022-12-29T07:00:39.332Z,0.85
2022-12-29T07:03:07.626Z,0.80
2022-12-29T07:05:36.708Z,0.57
2022-12-29T07:08:04.917Z,0.55
2022-12-29T07:10:36.324Z,0.55
2022-12-29T07:13:04.967Z,0.20
2022-12-29T07:15:33.163Z,0.60
2022-12-29T07:18:02.738Z,0.85
2022-12-29T07:20:31.381Z,0.43
2022-12-29T07:23:01.519Z,0.40
2022-12-29T07:25:30.871Z,0.73
2022-12-29T07:27:59.649Z,1.02
2022-12-29T07:30:28.052Z,0.68
2022-12-29T07:32:56.341Z,0.20
2022-12-29T07:35:26.204Z,0.20
2022-12-29T07:37:54.709Z,0.90
2022-12-29T07:40:22.838Z,0.32
2022-12-29T07:42:50.989Z,1.20
2022-12-29T07:45:19.676Z,1.38
2022-12-29T07:47:50.591Z,0.77
2022-12-29T07:50:18.998Z,0.40
2022-12-29T07:52:52.074Z,1.20
2022-12-29T07:55:20.232Z,0.93
2022-12-29T07:57:48.507Z,0.90
2022-12-29T08:00:17.838Z,0.80
2022-12-29T08:02:46.014Z,0.47
2022-12-29T08:05:14.856Z,0.38
2022-12-29T08:07:44.906Z,0.82
2022-12-29T08:12:44.103Z,0.82
2022-12-29T08:15:14.108Z,2.05
2022-12-29T08:20:11.449Z,0.65
2022-12-29T08:22:39.714Z,0.52
2022-12-29T08:25:08.365Z,0.73
2022-12-29T08:27:37.971Z,0.70
2022-12-29T08:30:07.061Z,0.45
2022-12-29T08:32:35.221Z,0.83
2022-12-29T08:35:03.380Z,1.27
2022-12-29T08:37:31.659Z,0.55
2022-12-29T08:40:04.592Z,0.73
2022-12-29T08:42:32.911Z,0.93
2022-12-29T08:45:02.913Z,0.77
2022-12-29T08:49:59.195Z,0.30
2022-12-29T08:52:27.686Z,1.15
2022-12-29T08:54:55.848Z,1.02
2022-12-29T08:57:23.991Z,1.05
2022-12-29T08:59:52.198Z,0.70
2022-12-29T09:02:24.358Z,0.57
2022-12-29T09:04:53.194Z,0.68
2022-12-29T09:07:21.793Z,0.60
2022-12-29T09:09:50.034Z,1.35
2022-12-29T09:12:19.072Z,0.50
2022-12-29T09:14:48.906Z,0.50
2022-12-29T09:17:35.574Z,0.73
2022-12-29T09:20:06.109Z,1.05
2022-12-29T09:22:34.516Z,0.30
2022-12-29T09:25:03.184Z,0.98
2022-12-29T09:27:32.618Z,1.70
2022-12-29T09:30:01.514Z,1.27
2022-12-29T09:32:33.704Z,1.45
2022-12-29T09:35:02.701Z,1.20
2022-12-29T09:37:33.354Z,1.10
2022-12-29T09:40:01.663Z,2.10
2022-12-29T09:42:37.282Z,0.82
2022-12-29T09:45:14.655Z,0.57
2022-12-29T09:47:44.907Z,1.67
2022-12-29T09:50:22.304Z,0.90
2022-12-29T09:52:57.220Z,1.20
2022-12-29T09:55:33.188Z,1.73
2022-12-29T09:58:04.551Z,1.30
2022-12-29T10:00:40.445Z,0.80
2022-12-29T10:03:16.006Z,1.88
2022-12-29T10:05:49.804Z,1.23
2022-12-29T10:08:32.185Z,0.70
2022-12-29T10:11:09.778Z,1.02
2022-12-29T10:13:45.548Z,1.15
2022-12-29T10:16:20.282Z,1.75
2022-12-29T10:19:15.994Z,1.02
2022-12-29T10:21:58.212Z,1.50
2022-12-29T10:24:30.807Z,1.13
2022-12-29T10:27:01.551Z,1.00
2022-12-29T10:29:35.838Z,1.45
2022-12-29T10:32:08.023Z,1.88
2022-12-29T10:34:40.306Z,1.65
2022-12-29T10:37:18.302Z,2.38
2022-12-29T10:39:51.541Z,1.67
2022-12-29T10:42:28.259Z,2.28
2022-12-29T10:44:57.400Z,2.33
2022-12-29T10:47:28.736Z,2.10
2022-12-29T10:49:59.343Z,2.28
2022-12-29T10:52:29.872Z,2.03
2022-12-29T10:55:02.961Z,1.70
2022-12-29T10:57:35.240Z,1.73
2022-12-29T11:00:03.907Z,1.50
2022-12-29T11:02:57.187Z,2.53
2022-12-29T11:05:31.252Z,3.38
2022-12-29T11:08:04.128Z,2.17
2022-12-29T11:10:40.823Z,2.63
2022-12-29T11:13:15.302Z,2.45
2022-12-29T11:15:45.806Z,4.93
2022-12-29T11:18:22.741Z,3.05
2022-12-29T11:20:52.758Z,6.13
2022-12-29T11:23:31.296Z,4.80
2022-12-29T11:26:21.477Z,3.88
2022-12-29T11:29:07.591Z,2.40
2022-12-29T11:31:42.892Z,2.22
2022-12-29T11:34:11.297Z,3.25
2022-12-29T11:36:41.090Z,3.00
2022-12-29T11:39:29.160Z,3.00
2022-12-29T11:41:59.645Z,3.75
2022-12-29T11:44:29.841Z,4.05
2022-12-29T11:46:58.085Z,2.53
2022-12-29T11:49:28.458Z,5.10
2022-12-29T11:51:57.905Z,3.97
2022-12-29T11:54:29.604Z,4.57
2022-12-29T11:57:01.632Z,5.22
2022-12-29T11:59:47.813Z,3.38
2022-12-29T12:02:50.739Z,4.25
2022-12-29T12:05:29.054Z,4.38
2022-12-29T12:08:04.472Z,2.83
2022-12-29T12:10:35.067Z,3.22
2022-12-29T12:13:14.514Z,5.85
2022-12-29T12:15:54.476Z,2.22
2022-12-29T12:18:34.701Z,5.38
2022-12-29T12:21:10.787Z,3.35
2022-12-29T12:23:46.937Z,4.47
2022-12-29T12:26:17.991Z,2.67
2022-12-29T12:28:55.903Z,2.75
2022-12-29T12:31:38.209Z,2.17
2022-12-29T12:34:14.499Z,3.05
2022-12-29T12:37:00.944Z,4.20
2022-12-29T12:39:34.617Z,3.15
2022-12-29T12:42:15.898Z,4.88
2022-12-29T12:44:53.044Z,3.60
2022-12-29T12:47:46.428Z,3.13
2022-12-29T12:50:30.403Z,2.67
2022-12-29T12:53:16.900Z,3.42
2022-12-29T12:56:00.177Z,2.72
2022-12-29T12:58:38.484Z,2.40
2022-12-29T13:01:20.319Z,4.22
2022-12-29T13:04:03.149Z,3.20
2022-12-29T13:06:47.400Z,2.08
2022-12-29T13:09:34.429Z,3.38
2022-12-29T13:12:13.877Z,2.50
2022-12-29T13:14:52.569Z,2.38
2022-12-29T13:17:30.054Z,3.22
2022-12-29T13:20:11.055Z,2.08
2022-12-29T13:22:44.844Z,2.67
2022-12-29T13:25:29.552Z,2.20
2022-12-29T13:28:03.562Z,2.33
2022-12-29T13:30:37.980Z,1.40
2022-12-29T13:33:21.622Z,2.40
2022-12-29T13:35:59.531Z,2.28
2022-12-29T13:38:34.700Z,2.42
2022-12-29T13:41:06.850Z,1.98
2022-12-29T13:43:38.623Z,1.48
2022-12-29T13:46:11.222Z,1.58
2022-12-29T13:48:45.879Z,2.55
2022-12-29T13:51:14.837Z,2.60
2022-12-29T13:54:01.290Z,2.80
2022-12-29T13:56:37.713Z,2.65
2022-12-29T13:59:14.448Z,2.22
2022-12-29T14:01:49.041Z,1.98
2022-12-29T14:04:24.686Z,2.30
2022-12-29T14:07:03.983Z,2.20
2022-12-29T14:09:49.172Z,3.47
2022-12-29T14:12:37.535Z,2.40
2022-12-29T14:15:21.694Z,1.67
2022-12-29T14:18:07.521Z,3.03
2022-12-29T14:20:37.818Z,1.77
2022-12-29T14:23:19.349Z,2.55
2022-12-29T14:26:00.700Z,2.13
2022-12-29T14:28:31.570Z,1.63
2022-12-29T14:31:00.983Z,2.20
2022-12-29T14:33:31.801Z,1.50
2022-12-29T14:36:21.431Z,3.05
2022-12-29T14:38:50.806Z,3.10
2022-12-29T14:41:31.170Z,3.33
2022-12-29T14:44:19.955Z,2.40
2022-12-29T14:46:57.183Z,2.30
2022-12-29T14:49:27.807Z,2.60
2022-12-29T14:52:08.493Z,3.53
2022-12-29T14:54:45.271Z,2.42
2022-12-29T14:57:22.595Z,2.72
2022-12-29T14:59:57.261Z,1.73
2022-12-29T15:02:29.761Z,3.28
2022-12-29T15:05:02.728Z,2.55
2022-12-29T15:07:33.364Z,1.30
2022-12-29T15:10:07.951Z,2.55
2022-12-29T15:12:41.221Z,1.70
2022-12-29T15:15:21.435Z,2.50
2022-12-29T15:17:49.757Z,2.28
2022-12-29T15:20:25.422Z,2.33
2022-12-29T15:22:58.708Z,3.00
2022-12-29T15:25:27.618Z,1.67
2022-12-29T15:27:59.474Z,3.78
2022-12-29T15:30:28.562Z,1.90
2022-12-29T15:32:56.935Z,1.30
2022-12-29T15:35:29.299Z,3.15
2022-12-29T15:37:59.554Z,3.13
2022-12-29T15:40:29.436Z,1.65
2022-12-29T15:45:41.427Z,3.50
2022-12-29T15:48:18.208Z,1.60
2022-12-29T15:50:48.078Z,2.10
2022-12-29T15:53:25.654Z,1.42
2022-12-29T15:55:58.413Z,1.33
2022-12-29T15:58:32.671Z,1.33
2022-12-29T16:01:03.231Z,2.78
2022-12-29T16:03:35.377Z,1.90
2022-12-29T16:06:11.558Z,2.35
2022-12-29T16:08:42.600Z,1.52
2022-12-29T16:11:24.579Z,2.33
2022-12-29T16:13:54.424Z,1.90
2022-12-29T16:16:28.031Z,2.75
2022-12-29T16:18:58.256Z,1.70
2022-12-29T16:21:30.966Z,3.28
2022-12-29T16:24:07.415Z,1.90
2022-12-29T16:26:35.910Z,1.80
2022-12-29T16:29:07.336Z,1.98
2022-12-29T16:31:38.793Z,1.10
2022-12-29T16:34:14.834Z,1.67
2022-12-29T16:36:54.404Z,1.75
2022-12-29T16:39:29.596Z,3.92
2022-12-29T16:41:58.027Z,2.83
2022-12-29T16:44:28.044Z,2.28
2022-12-29T16:49:34.910Z,2.78
2022-12-29T16:52:03.798Z,1.48
2022-12-29T16:54:37.487Z,1.35
2022-12-29T16:57:06.305Z,2.67
2022-12-29T16:59:36.295Z,2.08
2022-12-29T17:04:36.302Z,2.33
2022-12-29T17:07:04.837Z,2.65
2022-12-29T17:09:34.363Z,1.50
2022-12-29T17:12:10.680Z,1.70
2022-12-29T17:14:43.966Z,3.03
2022-12-29T17:17:16.916Z,2.58
2022-12-29T17:19:49.260Z,1.35
2022-12-29T17:22:21.265Z,2.10
2022-12-29T17:24:50.737Z,2.03
2022-12-29T17:27:28.993Z,0.93
2022-12-29T17:29:59.871Z,1.42
2022-12-29T17:32:28.404Z,2.30
2022-12-29T17:34:56.579Z,1.83
2022-12-29T17:37:36.861Z,2.42
2022-12-29T17:40:09.132Z,1.80
2022-12-29T17:42:41.730Z,1.70
2022-12-29T17:45:16.063Z,1.83
2022-12-29T17:47:44.421Z,2.17
2022-12-29T17:50:15.347Z,2.90
2022-12-29T17:52:44.182Z,4.15
2022-12-29T17:55:18.275Z,1.67
2022-12-29T17:57:46.943Z,1.38
2022-12-29T18:00:20.605Z,1.90
2022-12-29T18:02:50.001Z,2.55
2022-12-29T18:05:21.543Z,2.40
2022-12-29T18:07:52.099Z,2.22
2022-12-29T18:10:22.587Z,2.67
2022-12-29T18:12:52.861Z,2.13
2022-12-29T18:15:24.812Z,1.27
2022-12-29T18:17:59.504Z,1.58
2022-12-29T18:20:27.716Z,3.30
2022-12-29T18:22:56.270Z,3.88
2022-12-29T18:25:30.077Z,3.35
2022-12-29T18:27:58.498Z,3.55
2022-12-29T18:30:26.947Z,4.30
2022-12-29T18:32:55.250Z,2.88
2022-12-29T18:35:29.529Z,3.78
2022-12-29T18:37:57.939Z,3.47
2022-12-29T18:40:27.603Z,3.97
2022-12-29T18:42:56.038Z,3.20
2022-12-29T18:45:25.129Z,2.15
2022-12-29T18:47:53.675Z,3.40
2022-12-29T18:50:21.869Z,2.63
2022-12-29T18:52:50.091Z,3.05
2022-12-29T18:55:21.093Z,2.35
2022-12-29T18:57:51.331Z,1.48
2022-12-29T19:00:22.807Z,2.42
2022-12-29T19:02:52.293Z,3.50
2022-12-29T19:05:24.556Z,4.22
2022-12-29T19:07:53.822Z,2.90
2022-12-29T19:10:23.475Z,2.63
2022-12-29T19:12:53.671Z,1.27
2022-12-29T19:15:25.659Z,2.25
2022-12-29T19:18:16.605Z,4.07
2022-12-29T19:23:14.877Z,2.47
2022-12-29T19:25:43.189Z,1.17
2022-12-29T19:28:18.648Z,2.15
2022-12-29T19:30:51.842Z,1.52
2022-12-29T19:33:21.732Z,1.67
2022-12-29T19:35:51.363Z,3.15
2022-12-29T19:38:20.881Z,1.42
2022-12-29T19:40:52.088Z,3.10
2022-12-29T19:43:22.316Z,3.63
2022-12-29T19:45:51.449Z,2.50
2022-12-29T19:48:21.707Z,2.10
2022-12-29T19:50:50.028Z,1.90
2022-12-29T19:53:18.401Z,1.25
2022-12-29T19:55:48.212Z,1.83
2022-12-29T19:58:16.466Z,2.92
2022-12-29T20:00:46.246Z,2.15
2022-12-29T20:03:14.577Z,1.38
2022-12-29T20:05:43.048Z,2.15
2022-12-29T20:08:11.176Z,3.08
2022-12-29T20:10:39.772Z,2.67
2022-12-29T20:13:08.282Z,3.53
2022-12-29T20:15:36.700Z,2.50
2022-12-29T20:18:13.752Z,1.60
2022-12-29T20:20:43.270Z,1.30
2022-12-29T20:23:11.877Z,2.78
2022-12-29T20:25:45.319Z,3.72
2022-12-29T20:28:15.903Z,2.47
2022-12-29T20:30:44.808Z,1.83
2022-12-29T20:33:16.443Z,2.40
2022-12-29T20:35:45.267Z,2.20
2022-12-29T20:38:13.447Z,2.53
2022-12-29T20:40:46.694Z,1.73
2022-12-29T20:43:17.022Z,2.78
2022-12-29T20:48:14.759Z,2.25
2022-12-29T20:50:42.917Z,2.33
2022-12-29T20:53:11.670Z,4.00
2022-12-29T20:55:41.194Z,1.63
2022-12-29T20:58:25.394Z,3.05
2022-12-29T21:00:54.377Z,3.80
2022-12-29T21:03:24.769Z,3.25
2022-12-29T21:05:55.343Z,3.72
2022-12-29T21:08:23.978Z,3.63
2022-12-29T21:10:52.812Z,2.20
2022-12-29T21:13:21.686Z,3.20
2022-12-29T21:15:50.640Z,3.03
2022-12-29T21:18:18.908Z,2.83
2022-12-29T21:20:56.689Z,5.38
2022-12-29T21:23:25.077Z,3.55
2022-12-29T21:25:53.791Z,3.83
2022-12-29T21:28:23.520Z,7.22
2022-12-29T21:30:52.663Z,4.25
2022-12-29T21:33:22.136Z,7.13
2022-12-29T21:35:51.684Z,2.53
2022-12-29T21:38:20.130Z,3.25
2022-12-29T21:40:48.705Z,3.85
2022-12-29T21:43:17.158Z,4.93
2022-12-29T21:45:49.213Z,7.32
2022-12-29T21:48:24.217Z,3.80
2022-12-29T21:51:10.189Z,4.03
2022-12-29T21:53:40.118Z,5.78
2022-12-29T21:56:10.128Z,3.00
2022-12-29T22:01:43.008Z,3.67
2022-12-29T22:04:30.661Z,8.18
2022-12-29T22:07:17.631Z,8.13
2022-12-29T22:10:03.097Z,4.93
2022-12-29T22:12:48.993Z,5.18
2022-12-29T22:15:17.454Z,3.60
2022-12-29T22:17:48.847Z,4.00
2022-12-29T22:20:17.748Z,3.67
2022-12-29T22:22:47.447Z,5.20
2022-12-29T22:25:15.935Z,4.88
2022-12-29T22:27:44.659Z,4.18
2022-12-29T22:30:13.455Z,4.57
2022-12-29T22:32:41.634Z,3.53
2022-12-29T22:35:11.137Z,5.55
2022-12-29T22:37:41.547Z,2.67
2022-12-29T22:40:12.901Z,4.78
2022-12-29T22:42:41.264Z,3.58
2022-12-29T22:45:10.171Z,4.60
2022-12-29T22:47:38.404Z,2.60
2022-12-29T22:50:07.192Z,4.47
2022-12-29T22:52:35.425Z,3.90
2022-12-29T22:55:07.061Z,3.60
2022-12-29T22:57:37.463Z,5.05
2022-12-29T23:00:08.313Z,3.70
2022-12-29T23:02:37.076Z,3.10
2022-12-29T23:05:06.462Z,3.83
2022-12-29T23:07:35.923Z,2.53
2022-12-29T23:10:04.657Z,4.17
2022-12-29T23:12:33.362Z,4.97
2022-12-29T23:15:02.972Z,2.75
2022-12-29T23:17:31.133Z,4.18
2022-12-29T23:19:59.361Z,3.72
2022-12-29T23:22:27.519Z,4.20
2022-12-29T23:24:56.026Z,6.20
2022-12-29T23:27:24.235Z,3.38
2022-12-29T23:29:52.384Z,3.83
2022-12-29T23:32:22.457Z,3.15
2022-12-29T23:37:19.051Z,3.60
2022-12-29T23:39:47.185Z,5.50
2022-12-29T23:42:15.293Z,3.85
2022-12-29T23:44:43.982Z,5.78
2022-12-29T23:47:12.887Z,4.72
2022-12-29T23:49:42.490Z,3.45
2022-12-29T23:52:11.756Z,5.65
2022-12-29T23:54:39.922Z,4.07
2022-12-29T23:57:08.108Z,6.10
2022-12-29T23:59:36.771Z,3.15
